OIAM  Mahshahr  Airport

Iran

Add Bookmark
Status IATA
Operational MRX
Latitude Longitude
30° 33' 22" N 49° 9' 6" E
30.556200 49.151901
Local (DST + 5) UTC (GMT + 4)
Mar 6, 2015 05:35 Mar 6, 2015 14:05
Sunrise-Sunset Local UTC
Begin Civil Twilight 06:08 02:38
Sunrise 06:32 03:02
Sunset 06:16 14:46
End Civil Twilight 06:40 15:10

Current Weather

METAR Observed VFR
OIAM 061300Z 32014KT CAVOK 27/M03 Q1018 Fri, Mar 6, 2015 @ 13:00 UTC
(1 Hour, 5 Minutes ago)
Visual Flight Rules
Wind Visibility Clouds Conditions
320° at 14 knots (26 kph) 10 km or more
  • Clear skies
  • No significant weather
Temperatures Readings Precipitation
Current Temp 27°C (81°F)
Dewpoint -3°C (27°F)
Humidity 14%
Altimeter 30.06"Hg
Sea Level Pressure 1018mb
Field Elevation 13.12'
None Recorded

Additional weather within a 92.6km radius of OIAM

Map ICAO Location
OIAG 54.4km E (067°)
OIAA 90.7km W (257°)

24 Hour Weather History

Loading
-

24 Hour Weather Graphs

Loading
-

CheckWX.com is intended as a tool to help pilots better visualize weather data. It is not intended as a substitute for an official weather briefing obtained from a Flight Service Station. CheckWX.com does not meet the FAA requirements for an official pre-flight weather briefing. Therefore, it's important that pilots still call and obtain an official FSS pre-flight weather briefing.